• Join FlightAware (Why Join?)
  • Login
  • US Flag 
05:18PM EDT


 

Airport Tracker/Info


-or-


 

Live Flight TrackerFlight Track Log ✈ RPA3321 ✈ 01-May-2013 ✈ KALB - KDCA

Flight Track Log - Related Links

Times and Time Zones

All times are in EDT time to prevent confusion due to time zone crossing. See the RPA3321 flight status page for this flight to view local times or setup timezone preferences in your user account.

Time Position Orientation Groundspeed Altitude Reporting Facility
EDT Latitude Longitude Course Direction KTS MPH feet Rate Location/Type
05:43AM 42.7631 -73.8089 119° Southeast 142 163 1,300  Level Boston Center
05:43AM 42.8108 -73.8183 352° North 200 230 3,600 2,100 Climbing Boston Center
05:45AM 42.5153 -74.0095 171° South  Level Estimated
05:45AM 42.8478 -73.8814 309° West 429 494 5,600  Level Boston Center
05:46AM 42.4373 -74.0783 180° South  Level Estimated
05:46AM 42.8147 -74.0053 250° West 371 427 9,800  Level Boston Center
05:47AM 42.3593 -74.1470 172° South  Level Estimated
05:47AM 42.7592 -74.1086 234° Southwest 313 360 13,300  Level Boston Center
05:48AM 42.3083 -74.0236 119° Southeast  Level FlightAware Approximate
05:48AM 42.6717 -74.0950 173° South 254 292 16,400  Level Boston Center
05:49AM 42.5786 -74.0444 158° South 283 326 18,500 2,100 Climbing Boston Center
05:50AM 42.4919 -73.9972 158° South 317 365 20,600 1,980 Climbing Boston Center
05:51AM 42.4050 -73.9500 158° South 350 403 22,500 1,800 Climbing Boston Center
05:52AM 42.3078 -73.8972 158° South 368 423 24,200 1,740 Climbing Boston Center
05:53AM 42.2064 -73.8414 158° South 381 438 26,000 900 Climbing Boston Center
05:54AM 42.1047 -73.7861 158° South 393 452 26,000  Level Boston Center
05:55AM 41.9992 -73.7278 158° South 399 459 26,000  Level Boston Center
05:56AM 41.8978 -73.6728 158° South 399 459 26,000  Level Boston Center
05:57AM 41.7942 -73.6181 159° South 399 459 26,000  Level Boston Center
05:59AM 41.5467 -73.5903 175° South 404 465 26,000  Level New York Center
06:00AM 41.4364 -73.5856 178° South 404 465 26,000  Level New York Center
06:01AM 41.3258 -73.5892 181° South 404 465 26,000  Level New York Center
06:02AM 41.2325 -73.6653 212° Southwest 382 440 26,000  Level New York Center
06:03AM 41.1669 -73.7781 232° Southwest 376 433 26,000  Level New York Center
06:04AM 41.0994 -73.8933 232° Southwest 384 442 26,000  Level New York Center
06:05AM 41.0297 -74.0086 231° Southwest 399 459 26,000  Level New York Center
06:06AM 40.9619 -74.1233 232° Southwest 404 465 26,000  Level New York Center
06:07AM 40.8814 -74.2456 229° Southwest 410 472 26,000  Level New York Center
06:08AM 40.8133 -74.3628 233° Southwest 417 480 26,000  Level New York Center
06:09AM 40.7431 -74.4769 231° Southwest 412 474 26,000  Level New York Center
06:10AM 40.6747 -74.5936 232° Southwest 412 474 26,000  Level New York Center
06:11AM 40.6042 -74.7100 231° Southwest 412 474 26,000  Level New York Center
06:12AM 40.5297 -74.8175 228° Southwest 412 474 26,000 -600 Level New York Center
06:13AM 40.4550 -74.9250 228° Southwest 412 474 24,900 -1,140 Descending New York Center
06:14AM 40.3806 -75.0322 228° Southwest 412 474 23,800 -1,140 Descending New York Center
06:15AM 40.3200 -75.1428 234° Southwest 393 452 22,700 -960 Descending New York Center
06:16AM 40.3089 -75.2728 264° West 352 405 22,000 -360 Descending New York Center
06:17AM 40.2186 -75.3458 212° Southwest 350 403 22,000  Level New York Center
06:18AM 40.1306 -75.4161 211° Southwest 358 412 22,000  Level New York Center
06:19AM 40.0539 -75.5086 223° Southwest 372 428 22,000  Level New York Center
06:20AM 39.9792 -75.6036 224° Southwest 377 434 22,000  Level New York Center
06:21AM 39.9064 -75.6989 225° Southwest 377 434 22,000 -660 Level New York Center
06:23AM 39.7667 -75.9667 236° Southwest 361 415 19,800 -1,320 Descending Potomac TRACON
06:24AM 39.7000 -76.0667 229° Southwest 373 429 17,700 -1,980 Descending Potomac TRACON
06:25AM 39.6500 -76.1833 241° Southwest 353 406 15,900 -1,680 Descending Potomac TRACON
06:26AM 39.6333 -76.2667 255° West 344 396 14,700 -1,620 Descending Potomac TRACON
06:27AM 39.5667 -76.3833 233° Southwest 343 395 12,900 -1,380 Descending Potomac TRACON
06:28AM 39.5000 -76.4333 210° Southwest 332 382 12,000 -540 Descending Potomac TRACON
06:29AM 39.4333 -76.4833 210° Southwest 332 382 12,000 -480 Level Potomac TRACON
06:30AM 39.3500 -76.5333 205° Southwest 327 376 11,100 -840 Descending Potomac TRACON
06:31AM 39.2833 -76.5833 210° Southwest 320 368 10,500 -600 Descending Potomac TRACON
06:32AM 39.1833 -76.6500 207° Southwest 303 349 10,000 -300 Descending Potomac TRACON
06:33AM 39.1333 -76.7000 218° Southwest 300 345 10,000  Level Potomac TRACON
06:34AM 39.0833 -76.7667 226° Southwest 301 346 10,000 -180 Level Potomac TRACON
06:35AM 39.0167 -76.8500 224° Southwest 299 344 9,700 -600 Descending Potomac TRACON
06:36AM 38.9500 -76.9167 218° Southwest 290 334 8,800 -900 Descending Potomac TRACON
06:37AM 38.8833 -76.9500 201° Southwest 292 336 7,900 -1,200 Descending Potomac TRACON
06:38AM 38.8000 -76.9500 180° South 296 341 6,400 -1,500 Descending Potomac TRACON
06:39AM 38.7333 -76.9333 169° South 272 313 5,200 -1,200 Descending Potomac TRACON
06:40AM 38.6500 -76.9333 180° South 273 314 4,300 -1,200 Descending Potomac TRACON
06:41AM 38.6333 -77.0167 256° West 284 327 2,900 -900 Descending Potomac TRACON
06:42AM 38.7000 -77.0333 349° North 216 249 2,500 -420 Descending Potomac TRACON
06:43AM 38.7500 -77.0333 360° North 189 217 2,100 -420 Descending Potomac TRACON